»·PEaware :: FFT180 KASE-KSLC

FFT180 :: KASE-KSLC

FLIGHT INFORMATION

Flight Status: Arrived
Operator:
Frontier Airlines
More flights by this operator :: More flights under this callsign
Pilot: Etienne B. (28927)
Aircraft: AIRBUS A320
(A320)
More flights by this aircraft type
Origin: KASE Aspen-Pitkin Co/Sardy
United States
Destination: KSLC Salt Lake City Intl
United States
More flights between these airports :: More routes between these airports
Route: PITKN4 JNC HELPR LEEHY5
File this flight plan on PilotEdge
Remarks: RMK / SIMBRIEF
Altitude:
(Current/Filed)
34,000ft
Speed:
(Current/Filed)
433kts
Departed: 19-May-20 04:00 PM
Arrived: 19-May-20 04:48 PM
Distance/Time
Traveled:
253nm/0:48
Distance/Time
To Go:
Arrived

Flight Plot

Page will automatically refresh every two minutes.

Flight plan parsing failed; only flown route is shown


Map Options




Map Legend


Flown Route
Filed Route
Departure Airport
Arrival Airport
Navaid (VOR, NDB)
Fix

Horizontal Profiles

Position Reports

Time Latitude Longitude Heading Altitude Ground
Speed
19-May-20 15:45 39.219487 -106.865121 82 7843ft 0kts
19-May-20 15:46 39.219487 -106.865121 82 7843ft 0kts
19-May-20 15:47 39.219487 -106.865121 82 7843ft 0kts
19-May-20 15:48 39.219487 -106.865121 82 7843ft 0kts
19-May-20 15:49 39.219487 -106.865121 82 7843ft 0kts
19-May-20 15:50 39.219487 -106.865121 82 7843ft 0kts
19-May-20 15:52 39.219487 -106.865121 82 7843ft 0kts
19-May-20 15:53 39.219494 -106.865221 111 7843ft 2kts
19-May-20 15:54 39.219627 -106.865905 127 7843ft 2kts
19-May-20 15:55 39.219872 -106.866120 161 7843ft 0kts
19-May-20 15:56 39.219864 -106.866117 161 7843ft 0kts
19-May-20 15:57 39.216889 -106.864701 159 7843ft 18kts
19-May-20 15:58 39.213136 -106.862931 160 7843ft 10kts
19-May-20 15:59 39.212253 -106.862582 182 7843ft 5kts
19-May-20 16:00 39.216933 -106.865884 337 7843ft 92kts
19-May-20 16:01 39.260471 -106.882654 350 8732ft 201kts
19-May-20 16:02 39.310156 -106.917340 287 10775ft 227kts
19-May-20 16:03 39.342715 -106.999545 293 11871ft 298kts
19-May-20 16:04 39.376725 -107.103899 279 13252ft 335kts
19-May-20 16:05 39.375884 -107.225235 250 14498ft 350kts
19-May-20 16:06 39.351584 -107.349141 250 16317ft 360kts
19-May-20 16:06 39.330928 -107.454701 250 17693ft 369kts
19-May-20 16:08 39.301115 -107.606103 250 19483ft 378kts
19-May-20 16:09 39.274750 -107.738919 250 20931ft 386kts
19-May-20 16:09 39.252199 -107.851851 250 22070ft 392kts
19-May-20 16:10 39.224641 -107.989032 250 23347ft 400kts
19-May-20 16:12 39.191634 -108.152168 250 24739ft 408kts
19-May-20 16:12 39.167501 -108.270642 250 25688ft 413kts
19-May-20 16:13 39.137910 -108.415006 249 26738ft 419kts
19-May-20 16:14 39.107806 -108.560857 249 27702ft 424kts
19-May-20 16:15 39.077277 -108.708600 251 28600ft 431kts
19-May-20 16:16 39.089493 -108.865177 288 29364ft 468kts
19-May-20 16:17 39.149704 -109.015625 290 30045ft 476kts
19-May-20 16:18 39.211300 -109.167762 289 30708ft 481kts
19-May-20 16:19 39.272714 -109.321434 288 31524ft 481kts
19-May-20 16:20 39.333590 -109.474298 288 32391ft 478kts
19-May-20 16:21 39.393927 -109.626924 288 33142ft 476kts
19-May-20 16:22 39.454553 -109.779352 287 33753ft 474kts
19-May-20 16:23 39.513873 -109.930631 287 33759ft 473kts
19-May-20 16:24 39.573271 -110.082798 287 33779ft 473kts
19-May-20 16:25 39.632304 -110.234694 287 33401ft 469kts
19-May-20 16:26 39.690337 -110.384789 287 32407ft 462kts
19-May-20 16:27 39.747042 -110.532129 287 30772ft 451kts
19-May-20 16:28 39.802463 -110.676889 287 28783ft 443kts
19-May-20 16:29 39.856676 -110.819175 287 26764ft 436kts
19-May-20 16:30 39.909656 -110.958882 287 24752ft 428kts
19-May-20 16:31 39.961225 -111.095460 287 23048ft 410kts
19-May-20 16:32 40.010131 -111.225657 287 21247ft 396kts
19-May-20 16:33 40.057732 -111.352885 288 19381ft 384kts
19-May-20 16:34 40.103605 -111.475966 288 17250ft 368kts
19-May-20 16:35 40.145307 -111.588279 288 15517ft 317kts
19-May-20 16:36 40.186151 -111.691797 301 14175ft 328kts
19-May-20 16:37 40.249551 -111.779579 309 12808ft 329kts
19-May-20 16:38 40.317711 -111.859169 317 11734ft 330kts
19-May-20 16:39 40.390428 -111.927003 339 10891ft 304kts
19-May-20 16:40 40.469313 -111.937680 350 9950ft 275kts
19-May-20 16:41 40.541893 -111.945976 349 9073ft 241kts
19-May-20 16:42 40.600918 -111.952139 347 7732ft 178kts
19-May-20 16:43 40.644979 -111.958216 348 6751ft 152kts
19-May-20 16:44 40.688102 -111.963070 350 6014ft 157kts
19-May-20 16:45 40.731912 -111.968238 353 5092ft 155kts
19-May-20 16:46 40.772463 -111.972913 355 4358ft 145kts
19-May-20 16:47 40.795144 -111.976301 329 4236ft 34kts
19-May-20 16:48 40.796028 -111.977576 233 4236ft 4kts
19-May-20 16:49 40.793090 -111.977446 176 4236ft 12kts
19-May-20 16:50 40.791059 -111.978814 175 4236ft 14kts
19-May-20 16:51 40.788849 -111.980604 263 4236ft 0kts

Navigation Log

Ident Type
Flight plan parsing failed, navigation log unavailable